Search METAR Data

METAR Data for ENRA:

ENRA 301150Z 30009KT 260V330 9999 FEW066 20/11 Q1011